sensor_id;sensor_type;location;lat;lon;timestamp;P1;durP1;ratioP1;P2;durP2;ratioP2
23338;SDS011;11841;49.368;20.962;2023-09-19T00:02:02;9.20;;;6.32;;
23338;SDS011;11841;49.368;20.962;2023-09-19T00:04:51;11.63;;;7.45;;
23338;SDS011;11841;49.368;20.962;2023-09-19T00:07:37;11.60;;;6.72;;
23338;SDS011;11841;49.368;20.962;2023-09-19T00:10:24;14.07;;;7.22;;
23338;SDS011;11841;49.368;20.962;2023-09-19T00:13:12;11.40;;;6.20;;
23338;SDS011;11841;49.368;20.962;2023-09-19T00:16:00;7.65;;;5.65;;
23338;SDS011;11841;49.368;20.962;2023-09-19T00:18:46;8.63;;;5.85;;
23338;SDS011;11841;49.368;20.962;2023-09-19T00:21:31;10.18;;;6.80;;
23338;SDS011;11841;49.368;20.962;2023-09-19T00:24:17;12.95;;;6.53;;
23338;SDS011;11841;49.368;20.962;2023-09-19T00:27:03;14.32;;;6.80;;
23338;SDS011;11841;49.368;20.962;2023-09-19T00:29:50;7.78;;;6.07;;
23338;SDS011;11841;49.368;20.962;2023-09-19T00:32:37;14.45;;;6.80;;
23338;SDS011;11841;49.368;20.962;2023-09-19T00:35:23;9.63;;;6.70;;
23338;SDS011;11841;49.368;20.962;2023-09-19T00:38:09;13.48;;;6.40;;
23338;SDS011;11841;49.368;20.962;2023-09-19T00:40:55;22.15;;;7.43;;
23338;SDS011;11841;49.368;20.962;2023-09-19T00:43:44;10.63;;;6.70;;
23338;SDS011;11841;49.368;20.962;2023-09-19T00:46:30;12.40;;;6.20;;
23338;SDS011;11841;49.368;20.962;2023-09-19T00:49:18;14.13;;;7.05;;
23338;SDS011;11841;49.368;20.962;2023-09-19T00:52:08;11.20;;;7.03;;
23338;SDS011;11841;49.368;20.962;2023-09-19T00:54:56;13.68;;;7.00;;
23338;SDS011;11841;49.368;20.962;2023-09-19T00:57:41;18.55;;;8.40;;
23338;SDS011;11841;49.368;20.962;2023-09-19T01:00:28;8.77;;;6.20;;
23338;SDS011;11841;49.368;20.962;2023-09-19T01:03:14;11.05;;;6.53;;
23338;SDS011;11841;49.368;20.962;2023-09-19T01:05:59;12.18;;;7.13;;
23338;SDS011;11841;49.368;20.962;2023-09-19T01:08:48;9.25;;;6.38;;
23338;SDS011;11841;49.368;20.962;2023-09-19T01:11:36;14.30;;;7.50;;
23338;SDS011;11841;49.368;20.962;2023-09-19T01:14:37;9.10;;;6.63;;
23338;SDS011;11841;49.368;20.962;2023-09-19T01:17:29;14.38;;;7.32;;
23338;SDS011;11841;49.368;20.962;2023-09-19T01:20:30;16.77;;;7.97;;
23338;SDS011;11841;49.368;20.962;2023-09-19T01:23:34;11.20;;;7.55;;
23338;SDS011;11841;49.368;20.962;2023-09-19T01:30:01;12.32;;;7.85;;
23338;SDS011;11841;49.368;20.962;2023-09-19T01:33:02;15.38;;;7.68;;
23338;SDS011;11841;49.368;20.962;2023-09-19T01:35:52;14.77;;;7.90;;
23338;SDS011;11841;49.368;20.962;2023-09-19T01:38:38;18.83;;;8.50;;
23338;SDS011;11841;49.368;20.962;2023-09-19T01:41:26;12.07;;;8.25;;
23338;SDS011;11841;49.368;20.962;2023-09-19T01:44:22;12.93;;;8.05;;
23338;SDS011;11841;49.368;20.962;2023-09-19T01:47:27;12.90;;;7.40;;
23338;SDS011;11841;49.368;20.962;2023-09-19T01:53:21;12.63;;;7.68;;
23338;SDS011;11841;49.368;20.962;2023-09-19T01:56:16;9.30;;;6.85;;
23338;SDS011;11841;49.368;20.962;2023-09-19T01:59:13;12.50;;;8.05;;
23338;SDS011;11841;49.368;20.962;2023-09-19T02:02:04;11.60;;;7.20;;
23338;SDS011;11841;49.368;20.962;2023-09-19T02:04:52;12.35;;;7.97;;
23338;SDS011;11841;49.368;20.962;2023-09-19T02:07:40;13.88;;;8.13;;
23338;SDS011;11841;49.368;20.962;2023-09-19T02:10:26;10.95;;;7.60;;
23338;SDS011;11841;49.368;20.962;2023-09-19T02:13:11;14.57;;;7.65;;
23338;SDS011;11841;49.368;20.962;2023-09-19T02:15:57;10.10;;;7.93;;
23338;SDS011;11841;49.368;20.962;2023-09-19T02:18:43;10.05;;;7.38;;
23338;SDS011;11841;49.368;20.962;2023-09-19T02:21:28;10.52;;;7.38;;
23338;SDS011;11841;49.368;20.962;2023-09-19T02:24:14;13.13;;;8.30;;
23338;SDS011;11841;49.368;20.962;2023-09-19T02:27:00;13.00;;;8.52;;
23338;SDS011;11841;49.368;20.962;2023-09-19T02:29:49;11.15;;;7.35;;
23338;SDS011;11841;49.368;20.962;2023-09-19T02:32:34;18.45;;;8.63;;
23338;SDS011;11841;49.368;20.962;2023-09-19T02:35:24;11.43;;;7.93;;
23338;SDS011;11841;49.368;20.962;2023-09-19T02:38:10;13.10;;;8.80;;
23338;SDS011;11841;49.368;20.962;2023-09-19T02:40:57;12.00;;;7.53;;
23338;SDS011;11841;49.368;20.962;2023-09-19T02:43:43;13.07;;;7.72;;
23338;SDS011;11841;49.368;20.962;2023-09-19T02:46:28;11.82;;;7.63;;
23338;SDS011;11841;49.368;20.962;2023-09-19T02:49:13;15.57;;;8.18;;
23338;SDS011;11841;49.368;20.962;2023-09-19T02:51:59;16.15;;;7.13;;
23338;SDS011;11841;49.368;20.962;2023-09-19T02:54:44;12.60;;;7.85;;
23338;SDS011;11841;49.368;20.962;2023-09-19T02:57:30;11.02;;;7.18;;
23338;SDS011;11841;49.368;20.962;2023-09-19T03:00:19;9.70;;;6.88;;
23338;SDS011;11841;49.368;20.962;2023-09-19T03:03:06;9.40;;;7.82;;
23338;SDS011;11841;49.368;20.962;2023-09-19T03:05:53;12.57;;;7.75;;
23338;SDS011;11841;49.368;20.962;2023-09-19T03:08:39;11.40;;;7.68;;
23338;SDS011;11841;49.368;20.962;2023-09-19T03:11:27;12.05;;;6.68;;
23338;SDS011;11841;49.368;20.962;2023-09-19T03:14:15;12.93;;;7.38;;
23338;SDS011;11841;49.368;20.962;2023-09-19T03:17:01;10.63;;;7.90;;
23338;SDS011;11841;49.368;20.962;2023-09-19T03:19:50;10.02;;;6.80;;
23338;SDS011;11841;49.368;20.962;2023-09-19T03:22:35;8.88;;;7.15;;
23338;SDS011;11841;49.368;20.962;2023-09-19T03:25:20;16.90;;;7.13;;
23338;SDS011;11841;49.368;20.962;2023-09-19T03:28:09;13.48;;;8.35;;
23338;SDS011;11841;49.368;20.962;2023-09-19T03:31:01;10.13;;;6.60;;
23338;SDS011;11841;49.368;20.962;2023-09-19T03:33:48;7.38;;;5.82;;
23338;SDS011;11841;49.368;20.962;2023-09-19T03:36:34;11.18;;;6.45;;
23338;SDS011;11841;49.368;20.962;2023-09-19T03:39:19;10.05;;;7.13;;
23338;SDS011;11841;49.368;20.962;2023-09-19T03:42:05;11.93;;;6.70;;
23338;SDS011;11841;49.368;20.962;2023-09-19T03:44:52;11.20;;;6.20;;
23338;SDS011;11841;49.368;20.962;2023-09-19T03:47:38;15.43;;;7.80;;
23338;SDS011;11841;49.368;20.962;2023-09-19T03:50:24;9.20;;;6.22;;
23338;SDS011;11841;49.368;20.962;2023-09-19T03:53:09;10.90;;;6.80;;
23338;SDS011;11841;49.368;20.962;2023-09-19T03:55:55;9.18;;;6.70;;
23338;SDS011;11841;49.368;20.962;2023-09-19T03:58:40;13.55;;;5.90;;
23338;SDS011;11841;49.368;20.962;2023-09-19T04:01:26;10.95;;;6.82;;
23338;SDS011;11841;49.368;20.962;2023-09-19T04:04:13;9.48;;;6.55;;
23338;SDS011;11841;49.368;20.962;2023-09-19T04:06:59;12.07;;;6.72;;
23338;SDS011;11841;49.368;20.962;2023-09-19T04:09:44;11.63;;;6.40;;
23338;SDS011;11841;49.368;20.962;2023-09-19T04:12:31;19.30;;;8.07;;
23338;SDS011;11841;49.368;20.962;2023-09-19T04:15:17;12.70;;;8.13;;
23338;SDS011;11841;49.368;20.962;2023-09-19T04:18:02;11.13;;;6.97;;
23338;SDS011;11841;49.368;20.962;2023-09-19T04:20:49;10.45;;;7.22;;
23338;SDS011;11841;49.368;20.962;2023-09-19T04:23:34;14.02;;;7.97;;
23338;SDS011;11841;49.368;20.962;2023-09-19T04:26:20;17.20;;;7.43;;
23338;SDS011;11841;49.368;20.962;2023-09-19T04:29:06;10.25;;;7.30;;
23338;SDS011;11841;49.368;20.962;2023-09-19T04:31:52;10.07;;;7.15;;
23338;SDS011;11841;49.368;20.962;2023-09-19T04:34:37;12.43;;;8.25;;
23338;SDS011;11841;49.368;20.962;2023-09-19T04:37:26;13.15;;;8.25;;
23338;SDS011;11841;49.368;20.962;2023-09-19T04:40:11;12.05;;;8.10;;
23338;SDS011;11841;49.368;20.962;2023-09-19T04:43:03;12.65;;;8.23;;
23338;SDS011;11841;49.368;20.962;2023-09-19T04:45:48;14.02;;;8.15;;
23338;SDS011;11841;49.368;20.962;2023-09-19T04:48:33;18.13;;;8.85;;
23338;SDS011;11841;49.368;20.962;2023-09-19T04:51:19;15.32;;;8.50;;
23338;SDS011;11841;49.368;20.962;2023-09-19T04:54:05;14.23;;;7.75;;
23338;SDS011;11841;49.368;20.962;2023-09-19T04:56:51;11.02;;;8.27;;
23338;SDS011;11841;49.368;20.962;2023-09-19T04:59:37;13.93;;;9.13;;
23338;SDS011;11841;49.368;20.962;2023-09-19T05:02:22;12.15;;;8.40;;
23338;SDS011;11841;49.368;20.962;2023-09-19T05:05:08;15.07;;;9.18;;
23338;SDS011;11841;49.368;20.962;2023-09-19T05:07:56;15.15;;;8.90;;
23338;SDS011;11841;49.368;20.962;2023-09-19T05:10:42;11.55;;;8.65;;
23338;SDS011;11841;49.368;20.962;2023-09-19T05:13:27;17.60;;;9.20;;
23338;SDS011;11841;49.368;20.962;2023-09-19T05:16:13;14.60;;;9.25;;
23338;SDS011;11841;49.368;20.962;2023-09-19T05:18:58;15.15;;;9.57;;
23338;SDS011;11841;49.368;20.962;2023-09-19T05:21:45;13.32;;;8.43;;
23338;SDS011;11841;49.368;20.962;2023-09-19T05:24:31;11.23;;;8.38;;
23338;SDS011;11841;49.368;20.962;2023-09-19T05:27:16;15.65;;;8.73;;
23338;SDS011;11841;49.368;20.962;2023-09-19T05:30:02;15.10;;;9.73;;
23338;SDS011;11841;49.368;20.962;2023-09-19T05:32:48;15.10;;;9.48;;
23338;SDS011;11841;49.368;20.962;2023-09-19T05:35:33;15.85;;;10.40;;
23338;SDS011;11841;49.368;20.962;2023-09-19T05:38:19;17.05;;;9.48;;
23338;SDS011;11841;49.368;20.962;2023-09-19T05:41:05;11.23;;;8.80;;
23338;SDS011;11841;49.368;20.962;2023-09-19T05:43:51;13.68;;;9.18;;
23338;SDS011;11841;49.368;20.962;2023-09-19T05:46:37;17.65;;;10.73;;
23338;SDS011;11841;49.368;20.962;2023-09-19T05:49:22;10.32;;;8.40;;
23338;SDS011;11841;49.368;20.962;2023-09-19T05:52:09;10.95;;;8.02;;
23338;SDS011;11841;49.368;20.962;2023-09-19T05:54:54;10.57;;;8.15;;
23338;SDS011;11841;49.368;20.962;2023-09-19T05:57:41;9.18;;;6.57;;
23338;SDS011;11841;49.368;20.962;2023-09-19T06:00:27;8.65;;;6.38;;
23338;SDS011;11841;49.368;20.962;2023-09-19T06:03:16;8.60;;;7.13;;
23338;SDS011;11841;49.368;20.962;2023-09-19T06:06:04;9.45;;;7.25;;
23338;SDS011;11841;49.368;20.962;2023-09-19T06:08:51;11.68;;;6.65;;
23338;SDS011;11841;49.368;20.962;2023-09-19T06:11:36;7.88;;;6.75;;
23338;SDS011;11841;49.368;20.962;2023-09-19T06:14:22;9.38;;;7.35;;
23338;SDS011;11841;49.368;20.962;2023-09-19T06:17:09;8.80;;;6.72;;
23338;SDS011;11841;49.368;20.962;2023-09-19T06:19:55;11.20;;;6.70;;
23338;SDS011;11841;49.368;20.962;2023-09-19T06:22:41;7.55;;;6.18;;
23338;SDS011;11841;49.368;20.962;2023-09-19T06:25:27;9.48;;;6.65;;
23338;SDS011;11841;49.368;20.962;2023-09-19T06:28:13;8.35;;;6.80;;
23338;SDS011;11841;49.368;20.962;2023-09-19T06:31:01;15.98;;;7.70;;
23338;SDS011;11841;49.368;20.962;2023-09-19T06:33:47;12.25;;;7.25;;
23338;SDS011;11841;49.368;20.962;2023-09-19T06:36:33;11.88;;;6.88;;
23338;SDS011;11841;49.368;20.962;2023-09-19T06:39:19;10.30;;;7.75;;
23338;SDS011;11841;49.368;20.962;2023-09-19T06:42:04;8.48;;;6.95;;
23338;SDS011;11841;49.368;20.962;2023-09-19T06:44:49;10.75;;;7.57;;
23338;SDS011;11841;49.368;20.962;2023-09-19T06:47:34;12.90;;;8.13;;
23338;SDS011;11841;49.368;20.962;2023-09-19T06:50:21;10.45;;;7.78;;
23338;SDS011;11841;49.368;20.962;2023-09-19T06:53:08;12.35;;;7.70;;
23338;SDS011;11841;49.368;20.962;2023-09-19T06:55:55;10.93;;;7.60;;
23338;SDS011;11841;49.368;20.962;2023-09-19T06:58:40;9.98;;;8.40;;
23338;SDS011;11841;49.368;20.962;2023-09-19T07:01:29;10.15;;;8.25;;
23338;SDS011;11841;49.368;20.962;2023-09-19T07:04:14;11.55;;;8.40;;
23338;SDS011;11841;49.368;20.962;2023-09-19T07:07:00;9.85;;;7.95;;
23338;SDS011;11841;49.368;20.962;2023-09-19T07:09:46;8.95;;;7.40;;
23338;SDS011;11841;49.368;20.962;2023-09-19T07:12:33;15.95;;;9.00;;
23338;SDS011;11841;49.368;20.962;2023-09-19T07:15:19;16.40;;;8.70;;
23338;SDS011;11841;49.368;20.962;2023-09-19T07:18:05;11.27;;;8.25;;
23338;SDS011;11841;49.368;20.962;2023-09-19T07:20:51;9.90;;;7.78;;
23338;SDS011;11841;49.368;20.962;2023-09-19T07:23:36;11.55;;;7.78;;
23338;SDS011;11841;49.368;20.962;2023-09-19T07:26:23;15.80;;;8.52;;
23338;SDS011;11841;49.368;20.962;2023-09-19T07:29:09;17.05;;;8.85;;
23338;SDS011;11841;49.368;20.962;2023-09-19T07:31:54;13.40;;;8.38;;
23338;SDS011;11841;49.368;20.962;2023-09-19T07:34:40;11.45;;;9.13;;
23338;SDS011;11841;49.368;20.962;2023-09-19T07:37:25;13.98;;;9.45;;
23338;SDS011;11841;49.368;20.962;2023-09-19T07:40:11;18.88;;;10.43;;
23338;SDS011;11841;49.368;20.962;2023-09-19T07:42:57;12.48;;;9.95;;
23338;SDS011;11841;49.368;20.962;2023-09-19T07:45:46;13.20;;;9.90;;
23338;SDS011;11841;49.368;20.962;2023-09-19T07:48:33;12.60;;;9.20;;
23338;SDS011;11841;49.368;20.962;2023-09-19T07:51:20;16.73;;;10.27;;
23338;SDS011;11841;49.368;20.962;2023-09-19T07:54:05;15.25;;;11.70;;
23338;SDS011;11841;49.368;20.962;2023-09-19T07:56:51;15.27;;;10.95;;
23338;SDS011;11841;49.368;20.962;2023-09-19T07:59:40;15.95;;;10.88;;
23338;SDS011;11841;49.368;20.962;2023-09-19T08:02:27;20.05;;;10.50;;
23338;SDS011;11841;49.368;20.962;2023-09-19T08:05:13;14.60;;;9.98;;
23338;SDS011;11841;49.368;20.962;2023-09-19T08:08:01;18.02;;;10.50;;
23338;SDS011;11841;49.368;20.962;2023-09-19T08:10:46;18.38;;;10.88;;
23338;SDS011;11841;49.368;20.962;2023-09-19T08:13:38;14.85;;;10.55;;
23338;SDS011;11841;49.368;20.962;2023-09-19T08:16:32;19.25;;;11.52;;
23338;SDS011;11841;49.368;20.962;2023-09-19T08:19:17;13.60;;;9.75;;
23338;SDS011;11841;49.368;20.962;2023-09-19T08:22:03;12.90;;;10.38;;
23338;SDS011;11841;49.368;20.962;2023-09-19T08:24:48;13.25;;;10.75;;
23338;SDS011;11841;49.368;20.962;2023-09-19T08:27:34;16.75;;;10.77;;
23338;SDS011;11841;49.368;20.962;2023-09-19T08:30:21;14.00;;;10.05;;
23338;SDS011;11841;49.368;20.962;2023-09-19T08:33:12;14.35;;;10.60;;
23338;SDS011;11841;49.368;20.962;2023-09-19T08:36:00;21.13;;;10.65;;
23338;SDS011;11841;49.368;20.962;2023-09-19T08:38:45;14.35;;;10.55;;
23338;SDS011;11841;49.368;20.962;2023-09-19T08:41:31;16.40;;;10.50;;
23338;SDS011;11841;49.368;20.962;2023-09-19T08:44:16;13.65;;;9.77;;
23338;SDS011;11841;49.368;20.962;2023-09-19T08:47:08;18.35;;;10.07;;
23338;SDS011;11841;49.368;20.962;2023-09-19T08:53:27;14.75;;;8.30;;
23338;SDS011;11841;49.368;20.962;2023-09-19T08:56:19;13.20;;;8.73;;
23338;SDS011;11841;49.368;20.962;2023-09-19T08:59:08;12.65;;;7.72;;
23338;SDS011;11841;49.368;20.962;2023-09-19T09:01:54;11.10;;;7.75;;
23338;SDS011;11841;49.368;20.962;2023-09-19T09:04:41;17.70;;;8.82;;
23338;SDS011;11841;49.368;20.962;2023-09-19T09:07:28;19.73;;;10.10;;
23338;SDS011;11841;49.368;20.962;2023-09-19T09:10:14;17.63;;;9.02;;
23338;SDS011;11841;49.368;20.962;2023-09-19T09:12:59;13.75;;;8.32;;
23338;SDS011;11841;49.368;20.962;2023-09-19T09:15:45;13.75;;;9.68;;
23338;SDS011;11841;49.368;20.962;2023-09-19T09:18:31;21.95;;;10.80;;
23338;SDS011;11841;49.368;20.962;2023-09-19T09:21:16;18.33;;;10.75;;
23338;SDS011;11841;49.368;20.962;2023-09-19T09:27:15;12.38;;;6.90;;
23338;SDS011;11841;49.368;20.962;2023-09-19T09:30:01;9.93;;;7.53;;
23338;SDS011;11841;49.368;20.962;2023-09-19T09:32:52;12.23;;;8.45;;
23338;SDS011;11841;49.368;20.962;2023-09-19T09:36:01;14.10;;;8.57;;
23338;SDS011;11841;49.368;20.962;2023-09-19T09:38:48;15.55;;;8.88;;
23338;SDS011;11841;49.368;20.962;2023-09-19T09:41:36;11.15;;;7.75;;
23338;SDS011;11841;49.368;20.962;2023-09-19T09:44:24;11.43;;;7.53;;
23338;SDS011;11841;49.368;20.962;2023-09-19T09:47:10;11.63;;;7.97;;
23338;SDS011;11841;49.368;20.962;2023-09-19T09:50:14;15.77;;;8.93;;
23338;SDS011;11841;49.368;20.962;2023-09-19T09:53:23;14.52;;;8.25;;
23338;SDS011;11841;49.368;20.962;2023-09-19T09:56:12;9.25;;;7.13;;
23338;SDS011;11841;49.368;20.962;2023-09-19T09:58:59;8.63;;;6.32;;
23338;SDS011;11841;49.368;20.962;2023-09-19T10:01:46;10.55;;;6.35;;
23338;SDS011;11841;49.368;20.962;2023-09-19T10:04:33;6.70;;;4.95;;
23338;SDS011;11841;49.368;20.962;2023-09-19T10:07:25;7.20;;;4.38;;
23338;SDS011;11841;49.368;20.962;2023-09-19T10:10:34;9.88;;;5.35;;
23338;SDS011;11841;49.368;20.962;2023-09-19T10:13:38;13.15;;;7.00;;
23338;SDS011;11841;49.368;20.962;2023-09-19T10:16:28;11.55;;;6.63;;
23338;SDS011;11841;49.368;20.962;2023-09-19T10:19:29;7.63;;;4.88;;
23338;SDS011;11841;49.368;20.962;2023-09-19T10:22:21;5.75;;;3.88;;
23338;SDS011;11841;49.368;20.962;2023-09-19T10:25:07;4.40;;;3.60;;
23338;SDS011;11841;49.368;20.962;2023-09-19T10:27:54;4.38;;;3.88;;
23338;SDS011;11841;49.368;20.962;2023-09-19T10:30:41;4.47;;;2.83;;
23338;SDS011;11841;49.368;20.962;2023-09-19T10:33:34;2.95;;;2.60;;
23338;SDS011;11841;49.368;20.962;2023-09-19T10:36:25;2.53;;;1.90;;
23338;SDS011;11841;49.368;20.962;2023-09-19T10:39:15;2.70;;;1.95;;
23338;SDS011;11841;49.368;20.962;2023-09-19T10:42:04;2.38;;;1.60;;
23338;SDS011;11841;49.368;20.962;2023-09-19T10:47:39;2.30;;;1.75;;
23338;SDS011;11841;49.368;20.962;2023-09-19T10:50:24;5.28;;;2.45;;
23338;SDS011;11841;49.368;20.962;2023-09-19T10:53:12;2.95;;;2.35;;
23338;SDS011;11841;49.368;20.962;2023-09-19T10:56:00;3.07;;;2.00;;
23338;SDS011;11841;49.368;20.962;2023-09-19T10:59:07;2.75;;;2.05;;
23338;SDS011;11841;49.368;20.962;2023-09-19T11:02:15;4.68;;;3.50;;
23338;SDS011;11841;49.368;20.962;2023-09-19T11:05:12;5.68;;;3.55;;
23338;SDS011;11841;49.368;20.962;2023-09-19T11:07:58;3.10;;;2.63;;
23338;SDS011;11841;49.368;20.962;2023-09-19T11:10:50;2.47;;;1.60;;
23338;SDS011;11841;49.368;20.962;2023-09-19T11:13:36;1.80;;;1.70;;
23338;SDS011;11841;49.368;20.962;2023-09-19T11:16:22;1.52;;;1.42;;
23338;SDS011;11841;49.368;20.962;2023-09-19T11:19:08;2.22;;;1.73;;
23338;SDS011;11841;49.368;20.962;2023-09-19T11:21:56;1.45;;;1.35;;
23338;SDS011;11841;49.368;20.962;2023-09-19T11:24:41;2.08;;;1.30;;
23338;SDS011;11841;49.368;20.962;2023-09-19T11:27:27;3.20;;;1.48;;
23338;SDS011;11841;49.368;20.962;2023-09-19T11:30:25;4.32;;;3.45;;
23338;SDS011;11841;49.368;20.962;2023-09-19T11:39:01;1.50;;;1.30;;
23338;SDS011;11841;49.368;20.962;2023-09-19T11:41:52;1.50;;;1.20;;
23338;SDS011;11841;49.368;20.962;2023-09-19T11:44:41;1.60;;;1.15;;
23338;SDS011;11841;49.368;20.962;2023-09-19T11:47:27;2.53;;;1.40;;
23338;SDS011;11841;49.368;20.962;2023-09-19T11:50:17;1.13;;;1.00;;
23338;SDS011;11841;49.368;20.962;2023-09-19T11:53:05;2.63;;;1.38;;
23338;SDS011;11841;49.368;20.962;2023-09-19T11:55:52;2.03;;;1.00;;
23338;SDS011;11841;49.368;20.962;2023-09-19T11:58:38;1.85;;;1.15;;
23338;SDS011;11841;49.368;20.962;2023-09-19T12:01:31;1.10;;;0.98;;
23338;SDS011;11841;49.368;20.962;2023-09-19T12:04:17;3.67;;;1.67;;
23338;SDS011;11841;49.368;20.962;2023-09-19T12:07:11;1.92;;;1.63;;
23338;SDS011;11841;49.368;20.962;2023-09-19T12:10:02;1.42;;;1.30;;
23338;SDS011;11841;49.368;20.962;2023-09-19T12:12:50;1.30;;;1.20;;
23338;SDS011;11841;49.368;20.962;2023-09-19T12:15:38;1.27;;;1.15;;
23338;SDS011;11841;49.368;20.962;2023-09-19T12:18:26;1.67;;;1.05;;
23338;SDS011;11841;49.368;20.962;2023-09-19T12:21:26;2.80;;;1.27;;
23338;SDS011;11841;49.368;20.962;2023-09-19T12:24:21;2.05;;;1.25;;
23338;SDS011;11841;49.368;20.962;2023-09-19T12:27:06;1.38;;;1.13;;
23338;SDS011;11841;49.368;20.962;2023-09-19T12:29:52;2.83;;;1.80;;
23338;SDS011;11841;49.368;20.962;2023-09-19T12:32:51;2.15;;;1.27;;
23338;SDS011;11841;49.368;20.962;2023-09-19T12:35:36;4.40;;;1.13;;
23338;SDS011;11841;49.368;20.962;2023-09-19T12:38:24;1.65;;;1.40;;
23338;SDS011;11841;49.368;20.962;2023-09-19T12:41:13;2.22;;;1.27;;
23338;SDS011;11841;49.368;20.962;2023-09-19T12:43:59;1.60;;;1.20;;
23338;SDS011;11841;49.368;20.962;2023-09-19T12:46:46;1.40;;;1.30;;
23338;SDS011;11841;49.368;20.962;2023-09-19T12:49:31;4.43;;;1.70;;
23338;SDS011;11841;49.368;20.962;2023-09-19T12:52:16;2.58;;;1.48;;
23338;SDS011;11841;49.368;20.962;2023-09-19T12:55:04;4.22;;;1.45;;
23338;SDS011;11841;49.368;20.962;2023-09-19T13:01:13;1.95;;;1.33;;
23338;SDS011;11841;49.368;20.962;2023-09-19T13:04:18;2.05;;;1.58;;
23338;SDS011;11841;49.368;20.962;2023-09-19T13:07:06;2.10;;;1.40;;
23338;SDS011;11841;49.368;20.962;2023-09-19T13:10:02;3.33;;;1.20;;
23338;SDS011;11841;49.368;20.962;2023-09-19T13:12:49;2.05;;;1.33;;
23338;SDS011;11841;49.368;20.962;2023-09-19T13:15:51;2.83;;;1.35;;
23338;SDS011;11841;49.368;20.962;2023-09-19T13:18:43;3.63;;;1.70;;
23338;SDS011;11841;49.368;20.962;2023-09-19T13:21:31;6.13;;;1.88;;
23338;SDS011;11841;49.368;20.962;2023-09-19T13:24:30;2.42;;;1.17;;
23338;SDS011;11841;49.368;20.962;2023-09-19T13:27:15;1.77;;;0.90;;
23338;SDS011;11841;49.368;20.962;2023-09-19T13:30:01;1.65;;;1.27;;
23338;SDS011;11841;49.368;20.962;2023-09-19T13:32:46;3.60;;;1.13;;
23338;SDS011;11841;49.368;20.962;2023-09-19T13:35:32;2.72;;;1.42;;
23338;SDS011;11841;49.368;20.962;2023-09-19T13:38:17;3.63;;;1.40;;
23338;SDS011;11841;49.368;20.962;2023-09-19T13:41:06;2.08;;;1.42;;
23338;SDS011;11841;49.368;20.962;2023-09-19T13:43:52;3.40;;;1.58;;
23338;SDS011;11841;49.368;20.962;2023-09-19T13:46:38;2.25;;;1.50;;
23338;SDS011;11841;49.368;20.962;2023-09-19T13:49:23;2.63;;;2.03;;
23338;SDS011;11841;49.368;20.962;2023-09-19T13:52:09;1.45;;;1.17;;
23338;SDS011;11841;49.368;20.962;2023-09-19T13:54:54;1.15;;;1.05;;
23338;SDS011;11841;49.368;20.962;2023-09-19T13:57:42;4.75;;;1.60;;
23338;SDS011;11841;49.368;20.962;2023-09-19T14:00:30;2.58;;;1.25;;
23338;SDS011;11841;49.368;20.962;2023-09-19T14:03:15;1.60;;;1.33;;
23338;SDS011;11841;49.368;20.962;2023-09-19T14:06:01;1.55;;;1.10;;
23338;SDS011;11841;49.368;20.962;2023-09-19T14:08:46;4.75;;;1.20;;
23338;SDS011;11841;49.368;20.962;2023-09-19T14:11:33;2.05;;;1.30;;
23338;SDS011;11841;49.368;20.962;2023-09-19T14:14:18;2.42;;;1.40;;
23338;SDS011;11841;49.368;20.962;2023-09-19T14:17:05;3.15;;;1.50;;
23338;SDS011;11841;49.368;20.962;2023-09-19T14:19:52;3.75;;;1.20;;
23338;SDS011;11841;49.368;20.962;2023-09-19T14:22:38;2.42;;;1.02;;
23338;SDS011;11841;49.368;20.962;2023-09-19T14:25:23;1.98;;;1.30;;
23338;SDS011;11841;49.368;20.962;2023-09-19T14:28:10;3.28;;;1.30;;
23338;SDS011;11841;49.368;20.962;2023-09-19T14:30:55;3.85;;;1.00;;
23338;SDS011;11841;49.368;20.962;2023-09-19T14:33:41;2.33;;;1.63;;
23338;SDS011;11841;49.368;20.962;2023-09-19T14:36:26;1.45;;;1.30;;
23338;SDS011;11841;49.368;20.962;2023-09-19T14:39:13;5.40;;;1.77;;
23338;SDS011;11841;49.368;20.962;2023-09-19T14:41:58;2.35;;;1.85;;
23338;SDS011;11841;49.368;20.962;2023-09-19T14:44:43;5.00;;;1.73;;
23338;SDS011;11841;49.368;20.962;2023-09-19T14:47:30;5.65;;;1.50;;
23338;SDS011;11841;49.368;20.962;2023-09-19T14:50:17;2.88;;;1.38;;
23338;SDS011;11841;49.368;20.962;2023-09-19T14:53:02;1.45;;;1.10;;
23338;SDS011;11841;49.368;20.962;2023-09-19T14:55:48;9.80;;;2.28;;
23338;SDS011;11841;49.368;20.962;2023-09-19T14:58:37;1.33;;;1.20;;
23338;SDS011;11841;49.368;20.962;2023-09-19T15:01:24;2.03;;;1.48;;
23338;SDS011;11841;49.368;20.962;2023-09-19T15:04:10;3.30;;;1.48;;
23338;SDS011;11841;49.368;20.962;2023-09-19T15:06:56;2.45;;;1.60;;
23338;SDS011;11841;49.368;20.962;2023-09-19T15:09:41;5.47;;;1.80;;
23338;SDS011;11841;49.368;20.962;2023-09-19T15:12:27;2.45;;;1.48;;
23338;SDS011;11841;49.368;20.962;2023-09-19T15:15:14;2.15;;;1.45;;
23338;SDS011;11841;49.368;20.962;2023-09-19T15:17:59;3.58;;;1.60;;
23338;SDS011;11841;49.368;20.962;2023-09-19T15:20:44;3.83;;;1.70;;
23338;SDS011;11841;49.368;20.962;2023-09-19T15:23:30;3.80;;;1.60;;
23338;SDS011;11841;49.368;20.962;2023-09-19T15:26:18;2.90;;;1.98;;
23338;SDS011;11841;49.368;20.962;2023-09-19T15:29:06;2.75;;;1.70;;
23338;SDS011;11841;49.368;20.962;2023-09-19T15:31:54;4.97;;;2.45;;
23338;SDS011;11841;49.368;20.962;2023-09-19T15:34:43;5.10;;;2.50;;
23338;SDS011;11841;49.368;20.962;2023-09-19T15:37:29;4.80;;;2.42;;
23338;SDS011;11841;49.368;20.962;2023-09-19T15:40:14;2.85;;;1.83;;
23338;SDS011;11841;49.368;20.962;2023-09-19T15:42:59;4.03;;;2.17;;
23338;SDS011;11841;49.368;20.962;2023-09-19T15:45:45;4.15;;;1.63;;
23338;SDS011;11841;49.368;20.962;2023-09-19T15:48:31;3.92;;;2.05;;
23338;SDS011;11841;49.368;20.962;2023-09-19T15:51:16;2.47;;;1.95;;
23338;SDS011;11841;49.368;20.962;2023-09-19T15:54:07;4.72;;;2.10;;
23338;SDS011;11841;49.368;20.962;2023-09-19T15:56:53;3.65;;;2.00;;
23338;SDS011;11841;49.368;20.962;2023-09-19T15:59:39;4.03;;;1.95;;
23338;SDS011;11841;49.368;20.962;2023-09-19T16:02:25;3.67;;;3.00;;
23338;SDS011;11841;49.368;20.962;2023-09-19T16:05:11;3.75;;;2.08;;
23338;SDS011;11841;49.368;20.962;2023-09-19T16:07:57;9.60;;;2.17;;
23338;SDS011;11841;49.368;20.962;2023-09-19T16:10:44;3.25;;;2.28;;
23338;SDS011;11841;49.368;20.962;2023-09-19T16:13:32;4.83;;;2.20;;
23338;SDS011;11841;49.368;20.962;2023-09-19T16:16:18;7.00;;;1.83;;
23338;SDS011;11841;49.368;20.962;2023-09-19T16:19:08;2.95;;;2.03;;
23338;SDS011;11841;49.368;20.962;2023-09-19T16:21:55;3.38;;;1.60;;
23338;SDS011;11841;49.368;20.962;2023-09-19T16:24:41;6.05;;;2.10;;
23338;SDS011;11841;49.368;20.962;2023-09-19T16:27:26;3.97;;;3.08;;
23338;SDS011;11841;49.368;20.962;2023-09-19T16:30:12;2.85;;;1.92;;
23338;SDS011;11841;49.368;20.962;2023-09-19T16:32:58;5.15;;;2.85;;
23338;SDS011;11841;49.368;20.962;2023-09-19T16:35:44;12.85;;;8.30;;
23338;SDS011;11841;49.368;20.962;2023-09-19T16:38:29;5.32;;;3.45;;
23338;SDS011;11841;49.368;20.962;2023-09-19T16:41:14;5.78;;;2.63;;
23338;SDS011;11841;49.368;20.962;2023-09-19T16:44:02;6.68;;;3.58;;
23338;SDS011;11841;49.368;20.962;2023-09-19T16:46:52;6.85;;;2.53;;
23338;SDS011;11841;49.368;20.962;2023-09-19T16:49:38;6.22;;;3.65;;
23338;SDS011;11841;49.368;20.962;2023-09-19T16:52:26;4.40;;;2.47;;